Time;durP1;ratioP1;P1;durP2;ratioP2;P2;SDS_P1;SDS_P2;PMS_P1;PMS_P2;Temp;Humidity;BMP_temperature;BMP_pressure;BME280_temperature;BME280_humidity;BME280_pressure;Samples;Min_cycle;Max_cycle;Signal;HPM_P1;HPM_P2
2023/05/04 00:02:43;;;;;;;4.43;1.60;;;;;;;5.11;100.00;99203.09;15278244;19;20420;-48
2023/05/04 00:08:11;;;;;;;3.28;1.75;;;;;;;5.03;100.00;99195.59;15279300;19;20021;-50
2023/05/04 00:13:36;;;;;;;4.93;1.70;;;;;;;5.02;100.00;99193.91;15275369;19;20118;-49
2023/05/04 00:19:08;;;;;;;4.88;1.60;;;;;;;4.97;100.00;99188.03;15273677;19;20018;-51
2023/05/04 00:24:37;;;;;;;5.65;1.80;;;;;;;4.97;100.00;99177.34;15270442;19;20086;-50
2023/05/04 00:30:01;;;;;;;3.40;1.58;;;;;;;4.91;100.00;99173.28;15274872;19;20020;-50
2023/05/04 00:35:28;;;;;;;3.38;1.60;;;;;;;4.75;100.00;99165.50;15278059;19;20022;-51
2023/05/04 00:40:56;;;;;;;4.32;1.52;;;;;;;4.66;100.00;99166.97;15270755;19;20006;-48
2023/05/04 00:46:21;;;;;;;3.75;1.80;;;;;;;4.61;100.00;99159.28;15276366;19;20029;-51
2023/05/04 00:51:46;;;;;;;2.75;1.70;;;;;;;4.52;100.00;99153.72;15275284;19;20014;-52
2023/05/04 00:57:14;;;;;;;3.00;1.80;;;;;;;4.44;100.00;99159.56;15269781;19;20042;-51
2023/05/04 01:02:39;;;;;;;2.88;1.60;;;;;;;4.37;100.00;99155.63;15270107;19;20010;-50
2023/05/04 01:08:11;;;;;;;4.68;2.00;;;;;;;4.32;100.00;99151.44;15272458;19;20034;-49
2023/05/04 01:13:42;;;;;;;7.03;1.90;;;;;;;4.20;100.00;99157.59;15270702;19;20073;-51
2023/05/04 01:19:08;;;;;;;4.25;1.60;;;;;;;4.11;100.00;99150.22;15270335;19;20053;-54
2023/05/04 01:24:37;;;;;;;5.05;1.95;;;;;;;4.04;100.00;99154.25;15270181;19;20010;-49
2023/05/04 01:30:07;;;;;;;3.67;1.70;;;;;;;4.05;100.00;99161.31;15267940;19;20077;-51
2023/05/04 01:35:33;;;;;;;5.35;1.92;;;;;;;4.02;100.00;99157.00;15271642;19;20037;-49
2023/05/04 01:41:01;;;;;;;3.67;1.85;;;;;;;4.00;100.00;99159.78;15268640;19;20027;-52
2023/05/04 01:46:25;;;;;;;4.80;2.08;;;;;;;3.98;100.00;99158.19;15272119;19;20094;-45
2023/05/04 01:51:52;;;;;;;3.70;1.88;;;;;;;3.94;100.00;99160.16;15269341;19;20022;-47
2023/05/04 01:57:20;;;;;;;4.85;1.90;;;;;;;3.87;100.00;99163.38;15267960;19;20655;-48
2023/05/04 02:02:46;;;;;;;3.72;1.90;;;;;;;3.81;100.00;99159.28;15261866;19;20675;-48
2023/05/04 02:08:11;;;;;;;3.60;1.70;;;;;;;3.77;100.00;99153.28;15267369;19;20029;-46
2023/05/04 02:13:39;;;;;;;4.47;1.80;;;;;;;3.76;100.00;99145.41;15264724;19;20463;-50
2023/05/04 02:19:10;;;;;;;2.65;1.70;;;;;;;3.66;100.00;99143.34;15266035;19;20022;-52
2023/05/04 02:24:35;;;;;;;6.83;2.20;;;;;;;3.55;100.00;99152.00;15266940;19;20020;-50
2023/05/04 02:30:04;;;;;;;2.22;1.80;;;;;;;3.54;100.00;99146.78;15264294;19;20425;-49
2023/05/04 02:35:29;;;;;;;4.00;2.00;;;;;;;3.54;100.00;99138.81;15262330;19;20075;-46
2023/05/04 02:40:53;;;;;;;2.63;1.90;;;;;;;3.51;100.00;99146.97;15265537;19;20021;-45
2023/05/04 02:46:22;;;;;;;5.15;2.47;;;;;;;3.49;100.00;99147.09;15266423;19;20007;-46
2023/05/04 02:51:48;;;;;;;5.10;2.40;;;;;;;3.44;100.00;99145.69;15272873;19;20455;-46
2023/05/04 02:57:13;;;;;;;3.15;2.00;;;;;;;3.41;100.00;99145.88;15267165;19;20017;-51
2023/05/04 03:02:40;;;;;;;4.45;2.30;;;;;;;3.37;100.00;99146.03;15262984;19;20471;-57
2023/05/04 03:08:07;;;;;;;6.93;2.50;;;;;;;3.33;100.00;99147.22;15268616;19;20522;-47
2023/05/04 03:13:31;;;;;;;4.22;2.30;;;;;;;3.28;100.00;99146.63;15267192;19;20014;-50
2023/05/04 03:19:05;;;;;;;4.03;2.50;;;;;;;3.24;100.00;99153.09;15260609;19;20015;-50
2023/05/04 03:24:30;;;;;;;4.95;2.70;;;;;;;3.20;100.00;99159.59;15268677;19;20018;-48
2023/05/04 03:29:56;;;;;;;4.85;2.60;;;;;;;3.17;100.00;99159.78;15278126;19;20480;-51
2023/05/04 03:35:24;;;;;;;5.85;2.72;;;;;;;3.15;100.00;99157.22;15274999;19;20041;-50
2023/05/04 03:40:55;;;;;;;4.72;2.40;;;;;;;3.12;100.00;99165.38;15277362;19;20373;-48
2023/05/04 03:46:20;;;;;;;4.20;2.47;;;;;;;3.12;100.00;99159.22;15275744;19;20066;-49
2023/05/04 03:51:47;;;;;;;4.25;2.30;;;;;;;3.10;100.00;99153.13;15274277;19;20015;-47
2023/05/04 03:57:12;;;;;;;4.32;2.38;;;;;;;3.07;100.00;99152.38;15274827;19;20673;-50
2023/05/04 04:02:38;;;;;;;5.78;2.53;;;;;;;3.07;100.00;99154.16;15271507;19;20010;-50
2023/05/04 04:08:08;;;;;;;4.10;2.47;;;;;;;3.08;100.00;99154.09;15271915;19;20014;-49
2023/05/04 04:13:33;;;;;;;3.85;2.70;;;;;;;3.11;100.00;99152.19;15273270;19;20031;-50
2023/05/04 04:19:00;;;;;;;7.53;2.90;;;;;;;3.13;100.00;99152.91;15272297;19;20018;-53
2023/05/04 04:24:28;;;;;;;2.85;2.30;;;;;;;3.15;100.00;99151.91;15268576;19;20014;-47
2023/05/04 04:29:53;;;;;;;3.85;2.42;;;;;;;3.18;100.00;99156.16;15270855;19;20014;-50
2023/05/04 04:35:19;;;;;;;4.78;2.75;;;;;;;3.21;100.00;99150.66;15271991;19;20018;-50
2023/05/04 04:40:47;;;;;;;5.93;2.85;;;;;;;3.24;100.00;99151.31;15268840;19;20086;-49
2023/05/04 04:46:12;;;;;;;4.20;2.55;;;;;;;3.25;100.00;99144.16;15212590;19;20007;-52
2023/05/04 04:51:41;;;;;;;5.35;2.30;;;;;;;3.32;100.00;99144.63;15278160;19;20352;-49
2023/05/04 04:57:10;;;;;;;5.47;2.50;;;;;;;3.36;100.00;99147.00;15271087;19;20011;-50
2023/05/04 05:02:36;;;;;;;5.55;2.50;;;;;;;3.44;100.00;99138.53;15270415;19;20438;-52
2023/05/04 05:08:01;;;;;;;4.80;2.30;;;;;;;3.52;100.00;99143.38;15273634;19;20009;-47
2023/05/04 05:13:29;;;;;;;4.53;2.45;;;;;;;3.68;100.00;99143.22;15266385;19;20021;-49
2023/05/04 05:19:01;;;;;;;5.00;2.60;;;;;;;3.81;100.00;99153.97;15267803;19;20053;-46
2023/05/04 05:24:28;;;;;;;4.90;2.40;;;;;;;3.93;100.00;99144.28;15271351;19;20375;-46
2023/05/04 05:29:57;;;;;;;10.88;2.67;;;;;;;4.06;100.00;99133.69;15273117;19;20010;-49
2023/05/04 05:35:24;;;;;;;8.30;2.55;;;;;;;4.21;100.00;99121.97;15275578;19;20509;-51
2023/05/04 05:40:48;;;;;;;5.28;2.60;;;;;;;4.40;100.00;99128.75;15274294;19;20020;-51
2023/05/04 05:46:18;;;;;;;6.18;3.13;;;;;;;4.58;100.00;99132.81;15269322;19;20037;-48
2023/05/04 05:51:43;;;;;;;4.70;2.70;;;;;;;4.75;100.00;99128.13;15271361;19;20053;-47
2023/05/04 05:57:09;;;;;;;5.70;2.50;;;;;;;4.98;100.00;99128.31;15269329;19;20027;-45
2023/05/04 06:02:37;;;;;;;5.20;2.55;;;;;;;5.19;100.00;99121.47;15270672;19;20010;-48
2023/05/04 06:08:02;;;;;;;3.55;2.45;;;;;;;5.41;100.00;99114.56;15271659;19;20449;-54
2023/05/04 06:13:27;;;;;;;4.63;2.60;;;;;;;5.64;100.00;99106.69;15267460;19;20037;-48
2023/05/04 06:18:55;;;;;;;4.88;2.78;;;;;;;5.88;100.00;99114.69;15264386;19;20014;-56
2023/05/04 06:24:21;;;;;;;6.40;2.70;;;;;;;6.10;100.00;99113.13;15266533;19;20020;-49
2023/05/04 06:29:46;;;;;;;4.25;2.53;;;;;;;6.29;100.00;99115.28;15273583;19;20097;-51
2023/05/04 06:35:16;;;;;;;5.72;2.85;;;;;;;6.47;100.00;99113.84;15273783;19;20011;-49
2023/05/04 06:40:41;;;;;;;7.13;2.70;;;;;;;6.79;100.00;99118.53;15271463;19;20021;-52
2023/05/04 06:46:09;;;;;;;5.40;2.70;;;;;;;7.04;100.00;99111.25;15268386;19;20010;-50
2023/05/04 06:51:38;;;;;;;7.47;2.60;;;;;;;7.32;100.00;99113.53;15261997;19;20543;-50
2023/05/04 06:57:03;;;;;;;4.38;2.60;;;;;;;7.59;100.00;99110.44;15270430;19;20024;-53
2023/05/04 07:02:21;;;;;;;5.60;2.33;;;;;;;7.90;100.00;99094.53;15282558;19;20019;-50
2023/05/04 07:07:49;;;;;;;7.00;2.10;;;;;;;8.16;100.00;99086.13;15285459;19;20067;-49
2023/05/04 07:13:14;;;;;;;3.22;2.20;;;;;;;8.46;100.00;99085.34;15279718;19;20322;-50
2023/05/04 07:18:39;;;;;;;2.88;1.77;;;;;;;8.73;100.00;99088.50;15280706;19;20070;-49
2023/05/04 07:24:06;;;;;;;4.85;2.03;;;;;;;9.09;100.00;99091.66;15274121;19;20524;-53
2023/05/04 07:29:32;;;;;;;4.32;1.70;;;;;;;9.36;100.00;99084.78;15272000;19;20015;-49
2023/05/04 07:34:56;;;;;;;3.80;1.50;;;;;;;9.68;100.00;99072.97;15274610;19;20470;-49
2023/05/04 07:40:30;;;;;;;3.70;1.83;;;;;;;10.09;100.00;99054.84;15269326;19;20121;-76
2023/05/04 07:45:55;;;;;;;5.30;1.70;;;;;;;10.39;100.00;99066.50;15277476;19;20011;-77
2023/05/04 07:51:24;;;;;;;6.18;1.70;;;;;;;10.83;100.00;99051.63;15275152;19;20017;-75
2023/05/04 07:56:52;;;;;;;5.13;1.73;;;;;;;11.16;100.00;99050.22;15276482;19;20035;-76
2023/05/04 08:02:16;;;;;;;3.25;1.60;;;;;;;11.48;100.00;99045.31;15272359;19;20032;-75
2023/05/04 08:07:41;;;;;;;5.43;1.60;;;;;;;11.78;100.00;99046.81;15277299;19;20082;-75
2023/05/04 08:13:08;;;;;;;4.13;1.60;;;;;;;11.98;100.00;99036.75;15278812;19;20354;-76
2023/05/04 08:18:33;;;;;;;3.55;1.63;;;;;;;12.23;100.00;99039.66;15275354;19;20358;-75
2023/05/04 08:23:57;;;;;;;3.83;1.40;;;;;;;12.47;100.00;99024.63;15276924;19;20021;-75
2023/05/04 08:29:25;;;;;;;3.60;1.42;;;;;;;12.65;100.00;99021.88;15249920;19;20019;-75
2023/05/04 08:34:50;;;;;;;3.65;1.42;;;;;;;12.90;100.00;99025.56;15279229;19;20078;-75
2023/05/04 08:40:17;;;;;;;5.55;1.42;;;;;;;13.17;100.00;99020.13;15206566;19;20029;-76
2023/05/04 08:45:46;;;;;;;3.60;1.23;;;;;;;13.51;100.00;99021.94;15281148;19;20025;-76
2023/05/04 08:51:11;;;;;;;3.90;1.27;;;;;;;13.73;100.00;99009.59;15276009;19;20010;-75
2023/05/04 08:56:37;;;;;;;3.50;1.10;;;;;;;13.96;100.00;99008.94;15279121;19;20383;-75
2023/05/04 09:02:05;;;;;;;3.08;1.20;;;;;;;14.32;97.47;99008.59;15271205;19;20681;-76
2023/05/04 09:07:30;;;;;;;3.35;1.30;;;;;;;14.57;100.00;99012.13;15278336;19;20434;-76
2023/05/04 09:12:56;;;;;;;4.88;1.10;;;;;;;14.78;100.00;99003.44;15273545;19;20622;-76
2023/05/04 09:18:24;;;;;;;3.70;1.10;;;;;;;15.00;95.29;99003.72;15279291;19;20378;-76
2023/05/04 09:23:50;;;;;;;2.20;1.10;;;;;;;15.15;96.55;99003.84;15275204;19;20011;-76
2023/05/04 09:29:24;;;;;;;2.78;0.95;;;;;;;15.39;92.65;98999.31;15277445;19;20022;-76
2023/05/04 09:34:53;;;;;;;2.85;1.23;;;;;;;15.54;86.43;98993.97;15272869;19;20233;-76
2023/05/04 09:40:21;;;;;;;2.63;1.30;;;;;;;15.76;87.69;99002.28;15278119;19;20042;-75
2023/05/04 09:45:48;;;;;;;3.35;0.98;;;;;;;15.93;83.66;98995.75;15279942;19;20027;-75
2023/05/04 09:51:15;;;;;;;4.20;1.20;;;;;;;16.16;85.41;98995.72;14771770;19;10000665;-76
2023/05/04 09:56:47;;;;;;;2.25;1.00;;;;;;;16.30;75.37;98980.47;15285199;19;20410;-75
2023/05/04 10:02:13;;;;;;;3.25;1.30;;;;;;;16.37;72.77;98969.69;15307603;19;20030;-75
2023/05/04 10:07:47;;;;;;;3.80;1.17;;;;;;;16.52;73.41;98966.16;15331113;19;20259;-74
2023/05/04 10:13:12;;;;;;;2.78;1.00;;;;;;;16.72;72.17;98964.56;15294463;19;20014;31
2023/05/04 10:19:12;;;;;;;6.57;1.20;;;;;;;16.89;65.31;98957.03;15270277;19;20020;-45
2023/05/04 10:25:22;;;;;;;2.78;1.00;;;;;;;17.09;64.48;98945.59;15269876;19;20032;-45
2023/05/04 10:30:48;;;;;;;3.10;0.90;;;;;;;17.22;59.57;98939.47;15268196;19;20017;-45
2023/05/04 10:36:13;;;;;;;1.95;0.90;;;;;;;17.39;57.94;98929.19;15281792;19;20018;-46
2023/05/04 10:41:41;;;;;;;4.00;0.93;;;;;;;17.51;58.50;98915.91;15283724;19;20018;-46
2023/05/04 10:47:07;;;;;;;2.13;0.80;;;;;;;17.63;53.96;98916.22;15286687;19;20022;-45
2023/05/04 10:52:32;;;;;;;1.58;0.88;;;;;;;17.79;57.55;98909.66;15283677;19;20082;-48
2023/05/04 10:58:00;;;;;;;1.58;0.70;;;;;;;17.95;55.43;98911.25;15281558;19;20015;-47
2023/05/04 11:03:25;;;;;;;2.10;0.90;;;;;;;18.13;52.91;98906.19;15276817;19;20024;-45
2023/05/04 11:09:01;;;;;;;2.45;0.90;;;;;;;18.29;54.59;98890.53;15278311;19;20022;-46
2023/05/04 11:14:36;;;;;;;3.80;0.80;;;;;;;18.52;54.44;98879.38;15275147;19;20431;-47
2023/05/04 11:20:02;;;;;;;4.43;1.20;;;;;;;18.61;55.42;98871.88;15281559;19;20016;-47
2023/05/04 11:25:36;;;;;;;2.20;0.90;;;;;;;18.75;50.67;98859.09;15281322;19;20494;-47
2023/05/04 11:31:03;;;;;;;1.83;0.90;;;;;;;19.02;53.36;98861.97;15277402;19;20488;-46
2023/05/04 11:36:31;;;;;;;2.05;0.90;;;;;;;19.33;53.99;98864.16;15281012;19;20576;-47
2023/05/04 11:41:56;;;;;;;2.05;0.82;;;;;;;19.46;50.13;98859.75;15273637;19;20017;-48
2023/05/04 11:47:17;;;;;;;3.63;0.90;;;;;;;19.63;50.94;98854.72;15280080;19;20016;-46
2023/05/04 11:52:42;;;;;;;3.00;1.23;;;;;;;19.70;53.40;98853.66;15278470;19;20497;-46
2023/05/04 11:58:09;;;;;;;2.80;1.10;;;;;;;19.50;52.73;98859.13;15279732;19;20019;-47
2023/05/04 12:03:40;;;;;;;4.10;1.17;;;;;;;19.42;52.33;98858.47;15277441;19;20022;-46
2023/05/04 12:09:11;;;;;;;2.97;1.27;;;;;;;19.48;53.37;98849.44;15280154;19;20081;-46
2023/05/04 12:14:36;;;;;;;2.08;1.08;;;;;;;19.30;52.88;98848.16;15271564;19;20327;-47
2023/05/04 12:20:03;;;;;;;5.50;1.00;;;;;;;19.70;52.50;98839.97;15277317;19;20366;-47
2023/05/04 12:25:29;;;;;;;3.33;1.00;;;;;;;19.80;52.09;98830.53;15276713;19;20014;-46
2023/05/04 12:31:11;;;;;;;2.80;0.90;;;;;;;20.08;53.31;98837.66;15280805;19;20022;-50
2023/05/04 12:36:39;;;;;;;1.92;0.80;;;;;;;20.31;46.79;98829.84;15284433;19;20018;-45
2023/05/04 12:42:05;;;;;;;1.95;0.73;;;;;;;20.69;46.96;98822.78;15277893;19;20022;-47
2023/05/04 12:47:30;;;;;;;2.33;1.00;;;;;;;20.82;45.50;98812.81;15276363;19;20097;-49
2023/05/04 12:52:57;;;;;;;2.15;0.85;;;;;;;21.06;45.67;98808.47;15280252;19;20019;-49
2023/05/04 12:58:22;;;;;;;2.72;0.75;;;;;;;21.05;43.50;98804.06;15283103;19;20021;-48
2023/05/04 13:03:47;;;;;;;1.77;0.70;;;;;;;21.17;42.65;98790.50;15283027;19;20022;-47
2023/05/04 13:09:15;;;;;;;1.60;0.85;;;;;;;21.26;45.26;98778.22;15282519;19;20039;-51
2023/05/04 13:14:39;;;;;;;2.55;0.70;;;;;;;21.45;46.61;98773.66;15280317;19;20018;-48
2023/05/04 13:20:04;;;;;;;1.77;0.88;;;;;;;21.66;47.29;98771.59;15281763;19;20018;-45
2023/05/04 13:25:32;;;;;;;1.50;0.80;;;;;;;21.96;44.41;98768.13;15280386;19;20097;-47
2023/05/04 13:30:58;;;;;;;2.30;0.68;;;;;;;22.25;47.34;98768.44;15282232;19;20015;-48
2023/05/04 13:36:22;;;;;;;3.75;0.90;;;;;;;21.99;43.21;98752.03;15283871;19;20763;-46
2023/05/04 13:41:50;;;;;;;3.75;0.70;;;;;;;22.24;43.98;98750.28;15281981;19;20022;-46
2023/05/04 13:47:15;;;;;;;4.82;0.90;;;;;;;22.26;43.97;98740.75;15281124;19;20021;-47
2023/05/04 13:52:40;;;;;;;2.38;0.90;;;;;;;22.01;42.54;98735.38;15271783;19;20025;-50
2023/05/04 13:58:07;;;;;;;2.50;0.80;;;;;;;22.21;40.74;98723.31;15277871;19;20078;-47
2023/05/04 14:03:32;;;;;;;3.00;0.80;;;;;;;22.41;45.57;98729.41;15276558;19;20035;-47
2023/05/04 14:08:56;;;;;;;2.65;0.88;;;;;;;22.37;42.86;98716.34;15275156;19;20043;-50
2023/05/04 14:14:24;;;;;;;4.03;0.90;;;;;;;22.53;42.94;98709.41;15274904;19;20459;-48
2023/05/04 14:19:48;;;;;;;2.72;0.88;;;;;;;22.56;42.23;98717.19;15275488;19;20011;-48
2023/05/04 14:25:14;;;;;;;3.28;0.85;;;;;;;22.24;44.65;98712.69;15274481;19;20617;-49
2023/05/04 14:30:42;;;;;;;5.20;0.90;;;;;;;22.28;45.07;98702.13;15278344;19;20026;-47
2023/05/04 14:36:07;;;;;;;1.60;0.98;;;;;;;21.86;45.55;98694.59;15280182;19;20778;-47
2023/05/04 14:41:34;;;;;;;2.28;0.88;;;;;;;21.67;45.02;98685.53;15279193;19;20019;-47
2023/05/04 14:47:02;;;;;;;2.28;1.00;;;;;;;21.51;46.41;98668.56;15275459;19;20749;-46
2023/05/04 14:52:27;;;;;;;2.22;1.00;;;;;;;21.28;48.08;98655.53;15276902;19;20015;-48
2023/05/04 14:57:52;;;;;;;8.43;1.33;;;;;;;21.30;49.87;98652.56;15278853;19;20081;-47
2023/05/04 15:03:20;;;;;;;3.15;1.00;;;;;;;21.27;48.73;98642.03;15271803;19;20022;-47
2023/05/04 15:08:45;;;;;;;5.45;1.08;;;;;;;21.11;49.57;98644.28;15274139;19;20202;-46
2023/05/04 15:14:10;;;;;;;1.98;0.90;;;;;;;21.06;50.56;98639.47;15273275;19;20015;-48
2023/05/04 15:19:37;;;;;;;2.25;0.85;;;;;;;21.18;50.84;98638.72;15276160;19;20619;-48
2023/05/04 15:25:02;;;;;;;5.10;0.90;;;;;;;21.19;50.51;98634.94;15285271;19;20025;-49
2023/05/04 15:30:28;;;;;;;2.75;0.82;;;;;;;21.28;49.63;98627.25;15290203;19;20034;-49
2023/05/04 15:35:55;;;;;;;3.38;1.10;;;;;;;21.22;48.10;98618.91;15292603;19;20014;-51
2023/05/04 15:41:20;;;;;;;2.20;0.90;;;;;;;21.28;49.82;98617.16;15287993;19;20051;-50
2023/05/04 15:46:45;;;;;;;3.42;0.88;;;;;;;21.43;49.87;98607.72;15286338;19;20021;-49
2023/05/04 15:52:13;;;;;;;3.10;1.00;;;;;;;21.25;49.63;98607.47;15283434;19;20015;-52
2023/05/04 15:57:37;;;;;;;2.78;1.08;;;;;;;20.51;51.65;98603.66;15284462;19;21302;-51
2023/05/04 16:03:03;;;;;;;2.47;1.13;;;;;;;20.26;53.39;98604.47;15286180;19;20347;-50
2023/05/04 16:08:30;;;;;;;3.13;1.30;;;;;;;20.42;54.19;98597.63;15287336;19;20491;-52
2023/05/04 16:13:56;;;;;;;3.58;1.08;;;;;;;20.50;52.32;98591.03;15282355;19;20028;-48
2023/05/04 16:19:22;;;;;;;2.92;1.20;;;;;;;20.41;53.29;98587.72;15286866;19;20031;-50
2023/05/04 16:24:50;;;;;;;3.58;1.30;;;;;;;20.36;54.03;98590.31;15281396;19;20402;-48
2023/05/04 16:30:16;;;;;;;2.97;1.20;;;;;;;20.38;52.30;98579.97;15282507;19;20003;-46
2023/05/04 16:35:43;;;;;;;2.03;1.17;;;;;;;20.52;51.98;98572.50;15291355;19;20010;-47
2023/05/04 16:41:10;;;;;;;4.35;1.20;;;;;;;20.64;50.06;98567.97;15280738;19;20022;-47
2023/05/04 16:46:35;;;;;;;4.80;1.17;;;;;;;20.73;48.96;98566.63;15284389;19;20469;-48
2023/05/04 16:51:59;;;;;;;4.88;1.10;;;;;;;20.70;52.35;98563.50;15284355;19;20098;-48
2023/05/04 16:57:27;;;;;;;3.10;1.10;;;;;;;20.57;53.03;98551.63;15285374;19;20017;-46
2023/05/04 17:02:52;;;;;;;6.65;1.30;;;;;;;20.52;51.93;98554.16;15277365;19;20014;-49
2023/05/04 17:08:17;;;;;;;5.03;1.40;;;;;;;20.45;54.26;98547.91;15281440;19;20026;-47
2023/05/04 17:13:44;;;;;;;3.55;1.10;;;;;;;20.15;53.81;98543.09;15281750;19;20478;-48
2023/05/04 17:19:17;;;;;;;3.13;1.30;;;;;;;19.80;53.36;98540.75;15282362;19;20015;-47
2023/05/04 17:24:42;;;;;;;3.70;1.20;;;;;;;19.48;54.19;98548.88;15278763;19;20014;-48
2023/05/04 17:30:10;;;;;;;3.40;1.10;;;;;;;19.16;54.91;98540.56;15280710;19;20025;-49
2023/05/04 17:35:35;;;;;;;4.85;1.20;;;;;;;18.81;54.82;98543.56;15278609;19;20090;-46
2023/05/04 17:40:59;;;;;;;3.88;1.10;;;;;;;18.46;56.51;98542.72;15280544;19;20011;-47
2023/05/04 17:46:26;;;;;;;4.95;1.10;;;;;;;18.07;56.50;98544.34;15279552;19;20021;-45
2023/05/04 17:51:52;;;;;;;3.38;1.20;;;;;;;17.76;58.61;98531.28;15278362;19;20014;-47
2023/05/04 17:57:17;;;;;;;3.67;1.10;;;;;;;17.41;59.35;98533.03;15278259;19;20019;-46
2023/05/04 18:02:47;;;;;;;2.90;1.10;;;;;;;17.13;60.13;98533.09;15277181;19;20022;-46
2023/05/04 18:08:12;;;;;;;2.40;1.08;;;;;;;16.92;60.66;98534.84;15270803;19;20039;-47
2023/05/04 18:13:36;;;;;;;4.78;1.13;;;;;;;16.64;61.35;98540.28;15278941;19;20834;-45
2023/05/04 18:19:10;;;;;;;4.00;1.15;;;;;;;16.39;61.53;98539.91;15276483;19;20815;-47
2023/05/04 18:24:35;;;;;;;2.75;1.00;;;;;;;16.15;63.16;98537.38;15273369;19;20026;-50
2023/05/04 18:30:00;;;;;;;1.95;0.95;;;;;;;15.91;64.02;98545.91;15271627;19;20014;-46
2023/05/04 18:35:27;;;;;;;2.35;0.93;;;;;;;15.69;64.66;98543.13;15273624;19;20099;-49
2023/05/04 18:40:52;;;;;;;1.40;0.98;;;;;;;15.51;64.63;98552.56;15270084;19;20014;-48
2023/05/04 18:46:17;;;;;;;2.88;1.17;;;;;;;15.37;65.35;98572.41;15272554;19;20022;-47
2023/05/04 18:51:44;;;;;;;1.95;0.98;;;;;;;15.22;66.31;98573.25;15271003;19;20014;-46
2023/05/04 18:57:11;;;;;;;3.58;1.00;;;;;;;15.10;67.37;98572.91;15288612;19;20479;-50
2023/05/04 19:02:36;;;;;;;4.82;1.00;;;;;;;14.97;68.08;98572.69;15286097;19;20380;-49
2023/05/04 19:08:03;;;;;;;1.75;1.02;;;;;;;14.88;69.26;98571.94;15286290;19;20491;-47
2023/05/04 19:13:28;;;;;;;3.30;1.10;;;;;;;14.76;70.72;98579.66;15281532;19;20036;-48
2023/05/04 19:18:59;;;;;;;3.67;1.10;;;;;;;14.68;73.86;98582.47;15283643;19;20019;-46
2023/05/04 19:24:26;;;;;;;2.78;1.10;;;;;;;14.53;80.62;98581.53;15286734;19;20126;-50
2023/05/04 19:29:51;;;;;;;3.38;1.13;;;;;;;14.47;82.96;98581.28;15288347;19;20608;-48
2023/05/04 19:35:17;;;;;;;3.22;1.10;;;;;;;14.37;89.85;98583.38;15284170;19;20029;-45
2023/05/04 19:40:44;;;;;;;3.08;1.10;;;;;;;14.30;95.56;98585.97;15285995;19;20027;-44
2023/05/04 19:46:10;;;;;;;2.05;1.10;;;;;;;14.12;100.00;98586.28;15272821;19;20029;-52
2023/05/04 19:51:34;;;;;;;4.28;1.30;;;;;;;14.03;100.00;98585.50;15291196;19;20027;-53
2023/05/04 19:57:02;;;;;;;3.65;1.33;;;;;;;13.87;100.00;98586.44;15290390;19;20554;-49
2023/05/04 20:02:26;;;;;;;4.25;1.38;;;;;;;13.75;100.00;98581.63;15289490;19;20020;-48
2023/05/04 20:07:51;;;;;;;3.50;1.20;;;;;;;13.66;100.00;98575.41;15279476;19;20021;-51
2023/05/04 20:13:19;;;;;;;3.13;1.15;;;;;;;13.54;100.00;98573.09;15288796;19;20027;-52
2023/05/04 20:18:44;;;;;;;5.20;1.52;;;;;;;13.43;100.00;98570.78;15282744;19;20016;-50
2023/05/04 20:24:08;;;;;;;3.63;1.30;;;;;;;13.35;100.00;98576.16;15286668;19;20025;-50
2023/05/04 20:29:36;;;;;;;3.72;1.35;;;;;;;13.26;100.00;98573.50;15287212;19;20003;-48
2023/05/04 20:35:02;;;;;;;4.75;1.30;;;;;;;13.18;100.00;98573.53;15284072;19;20418;-48
2023/05/04 20:40:27;;;;;;;6.70;1.20;;;;;;;13.12;100.00;98579.63;15284948;19;20122;-49
2023/05/04 20:46:03;;;;;;;5.05;1.40;;;;;;;13.04;100.00;98577.81;15287565;19;20026;-50
2023/05/04 20:51:28;;;;;;;3.15;1.50;;;;;;;12.97;100.00;98567.88;15283424;19;20017;-48
2023/05/04 20:56:52;;;;;;;3.85;1.55;;;;;;;12.89;100.00;98569.56;15284137;19;20020;-49
2023/05/04 21:02:20;;;;;;;3.38;1.50;;;;;;;12.90;100.00;98571.25;15287393;19;20007;-49
2023/05/04 21:07:44;;;;;;;3.15;1.40;;;;;;;12.86;100.00;98575.31;15280167;19;20600;-47
2023/05/04 21:13:09;;;;;;;2.40;1.27;;;;;;;12.76;100.00;98575.50;15284975;19;20075;-50
2023/05/04 21:18:36;;;;;;;4.63;1.50;;;;;;;12.64;100.00;98572.28;15281310;19;20025;-51
2023/05/04 21:24:01;;;;;;;2.65;1.40;;;;;;;12.52;100.00;98573.69;15281872;19;20463;-49
2023/05/04 21:29:25;;;;;;;3.40;1.50;;;;;;;12.41;100.00;98565.91;15281057;19;20613;-50
2023/05/04 21:34:55;;;;;;;3.22;1.60;;;;;;;12.23;100.00;98564.22;15283381;19;20757;-50
2023/05/04 21:40:19;;;;;;;4.38;1.60;;;;;;;12.02;100.00;98562.00;15283571;19;20011;-48
2023/05/04 21:45:44;;;;;;;6.07;1.60;;;;;;;11.92;100.00;98556.75;15281234;19;20467;-51
2023/05/04 21:51:11;;;;;;;5.07;2.00;;;;;;;11.76;100.00;98543.22;15282548;19;20379;-51
2023/05/04 21:56:38;;;;;;;4.55;1.45;;;;;;;11.74;100.00;98553.34;15277785;19;20002;-47
2023/05/04 22:02:02;;;;;;;2.33;1.23;;;;;;;11.72;100.00;98551.63;15281016;19;20046;-50
2023/05/04 22:07:30;;;;;;;3.80;1.42;;;;;;;11.70;100.00;98548.25;15280853;19;20014;-46
2023/05/04 22:12:56;;;;;;;7.38;1.42;;;;;;;11.68;100.00;98546.75;15283225;19;20268;-49
2023/05/04 22:18:21;;;;;;;3.90;1.35;;;;;;;11.70;100.00;98537.47;15287996;19;20021;-51
2023/05/04 22:23:48;;;;;;;2.58;1.40;;;;;;;11.78;100.00;98538.50;15284752;19;20090;-49
2023/05/04 22:29:13;;;;;;;4.07;1.30;;;;;;;11.83;100.00;98546.94;15279235;19;20017;-49
2023/05/04 22:34:37;;;;;;;2.55;1.38;;;;;;;11.85;100.00;98545.78;15301890;19;20501;-47
2023/05/04 22:40:05;;;;;;;4.28;1.42;;;;;;;11.91;100.00;98541.56;15343176;19;20374;-52
2023/05/04 22:45:29;;;;;;;3.92;1.63;;;;;;;11.91;100.00;98538.00;15324918;19;20014;-50
2023/05/04 22:50:55;;;;;;;2.47;1.30;;;;;;;11.91;100.00;98538.00;15278339;19;20033;-50
2023/05/04 22:56:22;;;;;;;2.42;1.30;;;;;;;11.91;100.00;98555.06;15272099;19;20018;-51
2023/05/04 23:01:48;;;;;;;3.80;1.30;;;;;;;11.86;100.00;98549.31;15279793;19;20031;-46
2023/05/04 23:07:13;;;;;;;2.70;1.08;;;;;;;11.85;100.00;98558.41;15277016;19;20010;-47
2023/05/04 23:12:42;;;;;;;1.85;1.10;;;;;;;11.86;100.00;98560.09;15282432;19;20463;-46
2023/05/04 23:18:06;;;;;;;4.97;1.20;;;;;;;11.83;100.00;98549.63;15280894;19;20014;-48
2023/05/04 23:23:32;;;;;;;2.00;1.00;;;;;;;11.84;100.00;98548.63;15276366;19;20482;-50
2023/05/04 23:28:59;;;;;;;2.95;1.30;;;;;;;11.83;100.00;98549.63;15272282;19;20467;-49
2023/05/04 23:34:24;;;;;;;1.70;1.10;;;;;;;11.82;100.00;98540.69;15276279;19;20007;-50
2023/05/04 23:39:48;;;;;;;3.33;1.10;;;;;;;11.80;100.00;98536.50;15272123;19;20374;-50
2023/05/04 23:45:22;;;;;;;2.85;1.25;;;;;;;11.80;100.00;98537.31;15289455;19;20070;-49
2023/05/04 23:50:56;;;;;;;3.97;1.15;;;;;;;11.79;100.00;98537.50;15289366;19;20014;-46
2023/05/04 23:56:21;;;;;;;4.95;1.30;;;;;;;11.79;100.00;98529.41;15284048;19;20029;-48
